Time;durP1;ratioP1;P1;durP2;ratioP2;P2;SDS_P1;SDS_P2;PMS_P1;PMS_P2;Temp;Humidity;BMP_temperature;BMP_pressure;BME280_temperature;BME280_humidity;BME280_pressure;Samples;Min_cycle;Max_cycle;Signal;HPM_P1;HPM_P2
2023/07/29 00:01:19;;;;;;;5.32;4.47;;;;;;;18.14;nan;100207.31;5019856;28;20484;-71
2023/07/29 00:03:44;;;;;;;11.60;5.18;;;;;;;18.00;nan;100204.47;5014580;28;20026;-71
2023/07/29 00:06:10;;;;;;;7.28;4.78;;;;;;;18.07;nan;100196.97;5015474;28;20037;-71
2023/07/29 00:08:35;;;;;;;7.70;5.13;;;;;;;18.05;nan;100199.09;5013339;28;20022;-71
2023/07/29 00:11:00;;;;;;;11.93;5.30;;;;;;;18.06;nan;100201.50;5016594;28;20025;-71
2023/07/29 00:13:26;;;;;;;6.80;4.90;;;;;;;18.15;nan;100212.38;5013510;28;20088;-71
2023/07/29 00:15:54;;;;;;;6.40;4.57;;;;;;;18.17;nan;100201.41;5017535;28;20029;-71
2023/07/29 00:18:20;;;;;;;6.97;5.03;;;;;;;18.13;nan;100189.75;5019223;28;20519;-72
2023/07/29 00:20:45;;;;;;;9.82;5.07;;;;;;;18.11;nan;100192.69;5014762;28;20033;-72
2023/07/29 00:23:11;;;;;;;10.18;4.75;;;;;;;18.11;nan;100202.53;5015997;28;20482;-73
2023/07/29 00:25:36;;;;;;;10.00;4.53;;;;;;;18.18;nan;100209.13;5019731;28;20041;-72
2023/07/29 00:28:01;;;;;;;7.75;4.93;;;;;;;18.20;nan;100203.53;5014971;28;20383;-71
2023/07/29 00:30:27;;;;;;;6.93;4.88;;;;;;;18.21;nan;100199.78;5017029;28;20030;-73
2023/07/29 00:32:52;;;;;;;8.25;4.72;;;;;;;18.10;nan;100193.75;5018817;28;20444;-73
2023/07/29 00:35:18;;;;;;;7.55;4.63;;;;;;;17.96;nan;100177.63;5015208;28;20108;-71
2023/07/29 00:37:43;;;;;;;6.47;4.43;;;;;;;18.00;nan;100197.28;5014341;28;20025;-72
2023/07/29 00:40:20;;;;;;;7.30;4.80;;;;;;;17.98;nan;100209.28;5017241;28;20072;-73
2023/07/29 00:42:46;;;;;;;12.00;5.43;;;;;;;17.93;nan;100210.13;5015494;28;20038;-73
2023/07/29 00:45:12;;;;;;;9.65;5.30;;;;;;;17.90;nan;100213.34;5016551;28;20079;-73
2023/07/29 00:47:38;;;;;;;7.38;4.72;;;;;;;17.79;nan;100209.94;5016347;28;20124;-72
2023/07/29 00:50:04;;;;;;;7.07;4.95;;;;;;;17.44;nan;100171.03;5019665;28;20233;-73
2023/07/29 00:52:30;;;;;;;9.32;4.72;;;;;;;17.55;nan;100201.03;5014265;28;20060;-72
2023/07/29 00:54:55;;;;;;;7.28;5.05;;;;;;;17.52;nan;100202.38;5017577;28;20714;-75
2023/07/29 00:57:21;;;;;;;8.10;5.20;;;;;;;17.50;nan;100204.53;5014548;28;20071;-73
2023/07/29 00:59:47;;;;;;;10.05;5.13;;;;;;;17.43;nan;100193.41;5015183;28;20021;-72
2023/07/29 01:02:12;;;;;;;6.68;5.05;;;;;;;17.42;nan;100199.78;5016419;28;20040;-72
2023/07/29 01:04:38;;;;;;;7.32;4.70;;;;;;;17.32;nan;100194.53;5013498;28;20038;-73
2023/07/29 01:07:17;;;;;;;6.50;4.50;;;;;;;17.30;nan;100207.31;5013613;28;20769;-73
2023/07/29 01:09:48;;;;;;;7.28;4.57;;;;;;;17.17;nan;100200.75;5014340;28;20052;-73
2023/07/29 01:12:24;;;;;;;7.15;4.70;;;;;;;16.92;nan;100189.13;5015140;28;20021;-72
2023/07/29 01:15:01;;;;;;;8.93;4.63;;;;;;;17.01;nan;100207.97;5013588;28;20474;-73
2023/07/29 01:17:49;;;;;;;9.93;4.80;;;;;;;17.01;nan;100200.00;5017425;28;20546;-73
2023/07/29 01:20:17;;;;;;;7.95;4.53;;;;;;;17.00;nan;100204.53;5021047;28;20036;-72
2023/07/29 01:22:42;;;;;;;9.68;4.65;;;;;;;16.97;nan;100202.38;5014436;28;20061;-71
2023/07/29 01:25:08;;;;;;;8.43;5.13;;;;;;;16.90;nan;100193.91;5014906;28;20030;-72
2023/07/29 01:27:33;;;;;;;7.50;5.15;;;;;;;16.65;nan;100192.09;5013688;28;20568;-72
2023/07/29 01:30:00;;;;;;;8.52;4.88;;;;;;;16.69;nan;100192.34;5016054;28;20033;-71
2023/07/29 01:32:42;;;;;;;10.45;5.38;;;;;;;16.71;nan;100200.84;5013090;28;20549;-72
2023/07/29 01:35:40;;;;;;;8.20;5.10;;;;;;;16.70;nan;100204.59;5016351;28;20080;-72
2023/07/29 01:38:13;;;;;;;9.95;5.55;;;;;;;16.63;nan;100188.91;5016778;28;20030;-73
2023/07/29 01:40:40;;;;;;;6.88;4.60;;;;;;;16.69;nan;100195.00;5030658;28;20034;-71
2023/07/29 01:43:08;;;;;;;10.95;4.65;;;;;;;16.58;nan;100188.94;5013397;28;20548;-71
2023/07/29 01:45:37;;;;;;;7.05;4.97;;;;;;;16.44;nan;100183.38;5015458;28;20028;-70
2023/07/29 01:48:06;;;;;;;6.47;4.85;;;;;;;16.52;nan;100195.31;5017219;28;20037;-71
2023/07/29 01:50:32;;;;;;;6.63;5.28;;;;;;;16.33;nan;100182.63;5019275;28;20108;-73
2023/07/29 01:52:58;;;;;;;10.90;5.32;;;;;;;16.44;nan;100182.59;5015272;28;20033;-72
2023/07/29 01:55:23;;;;;;;9.23;5.35;;;;;;;16.22;nan;100156.31;5013595;28;20045;-73
2023/07/29 01:57:49;;;;;;;9.45;5.10;;;;;;;16.38;nan;100185.25;5017176;28;20041;-69
2023/07/29 02:00:15;;;;;;;8.88;5.28;;;;;;;16.29;nan;100189.53;5015222;28;20040;-69
2023/07/29 02:02:41;;;;;;;8.40;6.05;;;;;;;16.25;nan;100182.34;5012010;28;20049;-68
2023/07/29 02:05:06;;;;;;;8.18;5.50;;;;;;;16.27;nan;100183.66;5013666;28;20041;-69
2023/07/29 02:07:32;;;;;;;9.15;5.78;;;;;;;16.25;nan;100190.31;5017176;28;20029;-69
2023/07/29 02:09:57;;;;;;;8.63;5.72;;;;;;;16.27;nan;100193.50;5016505;28;20845;-69
2023/07/29 02:12:22;;;;;;;9.65;6.00;;;;;;;16.29;nan;100191.38;5018925;28;20036;-69
2023/07/29 02:14:48;;;;;;;7.70;5.32;;;;;;;16.16;nan;100176.78;5019054;28;20028;-68
2023/07/29 02:17:13;;;;;;;9.18;5.63;;;;;;;16.21;nan;100184.75;5023514;28;20484;-67
2023/07/29 02:19:38;;;;;;;11.73;5.55;;;;;;;16.24;nan;100189.53;5020020;28;20030;-68
2023/07/29 02:22:04;;;;;;;7.10;5.30;;;;;;;16.23;nan;100192.44;5018480;28;20541;-68
2023/07/29 02:24:29;;;;;;;7.03;5.45;;;;;;;16.22;nan;100189.00;5020683;28;20040;-68
2023/07/29 02:26:55;;;;;;;7.55;5.47;;;;;;;16.18;nan;100179.97;5017327;28;20022;-68
2023/07/29 02:29:21;;;;;;;8.48;5.20;;;;;;;16.13;nan;100188.72;5016436;28;20029;-68
2023/07/29 02:31:47;;;;;;;6.20;5.10;;;;;;;16.01;nan;100174.13;5018592;28;20199;-68
2023/07/29 02:34:13;;;;;;;6.00;4.85;;;;;;;16.02;nan;100176.53;5014841;28;20559;-68
2023/07/29 02:36:38;;;;;;;8.18;5.15;;;;;;;16.02;nan;100189.00;5018057;28;20116;-70
2023/07/29 02:39:03;;;;;;;9.85;5.47;;;;;;;16.00;nan;100196.47;5017083;28;20022;-71
2023/07/29 02:41:29;;;;;;;13.43;5.68;;;;;;;15.99;nan;100192.97;5016286;28;20045;-72
2023/07/29 02:43:54;;;;;;;7.50;5.18;;;;;;;15.92;nan;100187.13;5017405;28;20502;-71
2023/07/29 02:46:20;;;;;;;8.52;5.88;;;;;;;15.93;nan;100183.44;5018440;28;20053;-71
2023/07/29 02:48:45;;;;;;;6.10;5.00;;;;;;;16.01;nan;100198.03;5034311;28;20544;-71
2023/07/29 02:51:10;;;;;;;10.13;5.25;;;;;;;15.97;nan;100194.31;5017691;28;20558;-71
2023/07/29 02:53:36;;;;;;;8.00;5.75;;;;;;;15.93;nan;100192.19;5019141;28;20033;-72
2023/07/29 02:56:03;;;;;;;6.43;5.15;;;;;;;15.92;nan;100192.44;5016233;28;20041;-70
2023/07/29 02:58:29;;;;;;;7.30;5.93;;;;;;;15.81;nan;100189.00;5018721;28;20029;-72
2023/07/29 03:01:00;;;;;;;9.85;5.63;;;;;;;15.55;nan;100150.19;5017277;28;20022;-73
2023/07/29 03:03:26;;;;;;;8.63;5.22;;;;;;;15.66;nan;100165.09;5016721;28;20029;-73
2023/07/29 03:05:58;;;;;;;8.32;5.65;;;;;;;15.76;nan;100174.94;5021053;28;20013;-73
2023/07/29 03:08:23;;;;;;;11.30;5.72;;;;;;;15.81;nan;100180.25;5019041;28;20016;-73
2023/07/29 03:10:49;;;;;;;10.45;5.10;;;;;;;15.88;nan;100184.22;5018139;28;20033;-72
2023/07/29 03:13:14;;;;;;;6.28;5.25;;;;;;;15.95;nan;100183.97;5018149;28;20618;-71
2023/07/29 03:15:40;;;;;;;8.68;5.90;;;;;;;15.93;nan;100181.56;5018496;28;20065;-71
2023/07/29 03:18:05;;;;;;;10.63;5.88;;;;;;;15.93;nan;100188.75;5015359;28;20025;-72
2023/07/29 03:20:30;;;;;;;10.82;5.00;;;;;;;15.93;nan;100188.75;5019697;28;20028;-71
2023/07/29 03:22:56;;;;;;;10.65;5.78;;;;;;;15.70;nan;100160.84;5015363;28;20037;-71
2023/07/29 03:25:21;;;;;;;11.02;5.20;;;;;;;15.85;nan;100182.13;5018666;28;20018;-72
2023/07/29 03:27:49;;;;;;;8.95;5.30;;;;;;;15.67;nan;100159.50;5017562;28;20021;-73
2023/07/29 03:30:14;;;;;;;12.18;5.90;;;;;;;15.89;nan;100199.09;5020459;28;20399;-72
2023/07/29 03:32:44;;;;;;;12.20;5.75;;;;;;;15.81;nan;100206.81;5016123;28;20033;-70
2023/07/29 03:35:09;;;;;;;10.68;5.55;;;;;;;15.76;nan;100204.16;5018766;28;20625;-71
2023/07/29 03:37:35;;;;;;;8.23;4.90;;;;;;;15.69;nan;100188.44;5015460;28;20038;-72
2023/07/29 03:40:00;;;;;;;9.95;6.00;;;;;;;15.74;nan;100194.56;5016711;28;20021;-70
2023/07/29 03:42:25;;;;;;;15.77;5.57;;;;;;;15.71;nan;100189.00;5017739;28;20026;-71
2023/07/29 03:44:51;;;;;;;10.10;5.72;;;;;;;15.78;nan;100208.13;5019447;28;20108;-70
2023/07/29 03:47:16;;;;;;;9.70;5.90;;;;;;;15.73;nan;100197.50;5024358;28;20116;-71
2023/07/29 03:49:41;;;;;;;13.77;5.85;;;;;;;15.76;nan;100194.31;5015019;28;20117;-71
2023/07/29 03:52:07;;;;;;;7.85;5.82;;;;;;;15.79;nan;100201.75;5015872;28;20041;-72
2023/07/29 03:54:32;;;;;;;8.80;5.47;;;;;;;15.76;nan;100196.19;5034876;28;20033;-72
2023/07/29 03:56:58;;;;;;;11.32;6.35;;;;;;;15.82;nan;100195.91;5018603;28;20157;-71
2023/07/29 03:59:23;;;;;;;10.32;6.10;;;;;;;15.84;nan;100196.44;5031065;28;20496;-71
2023/07/29 04:01:48;;;;;;;14.43;5.85;;;;;;;15.71;nan;100170.41;5015251;28;20029;-72
2023/07/29 04:04:14;;;;;;;11.63;5.22;;;;;;;15.89;nan;100195.63;5022737;28;20108;-72
2023/07/29 04:06:39;;;;;;;7.90;5.70;;;;;;;15.89;nan;100188.47;5017823;28;20108;-71
2023/07/29 04:09:04;;;;;;;11.65;6.13;;;;;;;15.97;nan;100199.63;5017101;28;20095;-73
2023/07/29 04:11:30;;;;;;;10.52;5.82;;;;;;;15.94;nan;100188.47;5012796;28;20047;-71
2023/07/29 04:13:55;;;;;;;13.07;6.10;;;;;;;15.91;nan;100188.22;5016370;28;20085;-73
2023/07/29 04:16:20;;;;;;;10.05;5.72;;;;;;;15.99;nan;100195.63;5014591;28;20026;-73
2023/07/29 04:18:46;;;;;;;13.27;6.07;;;;;;;16.07;nan;100189.81;5016621;28;20036;-71
2023/07/29 04:21:11;;;;;;;10.82;5.97;;;;;;;16.20;nan;100207.06;5014299;28;20037;-71
2023/07/29 04:23:37;;;;;;;8.63;5.50;;;;;;;16.22;nan;100202.28;5018009;28;20520;-72
2023/07/29 04:26:02;;;;;;;9.50;5.32;;;;;;;16.32;nan;100207.56;5016736;28;20428;-67
2023/07/29 04:28:27;;;;;;;10.35;5.60;;;;;;;16.29;nan;100189.53;5015598;28;20037;-68
2023/07/29 04:30:53;;;;;;;8.63;5.47;;;;;;;16.50;nan;100211.56;5021033;28;20030;-68
2023/07/29 04:33:18;;;;;;;10.75;5.20;;;;;;;16.50;nan;100200.13;5020925;28;20033;-67
2023/07/29 04:35:44;;;;;;;11.98;5.30;;;;;;;16.56;nan;100196.38;5020804;28;20088;-68
2023/07/29 04:38:09;;;;;;;8.63;5.20;;;;;;;16.68;nan;100204.06;5018109;28;20057;-73
2023/07/29 04:40:34;;;;;;;10.88;5.03;;;;;;;16.85;nan;100215.22;5014996;28;20041;-72
2023/07/29 04:43:01;;;;;;;5.75;4.85;;;;;;;16.98;nan;100219.16;5015927;28;20018;-72
2023/07/29 04:45:29;;;;;;;8.63;5.15;;;;;;;17.07;nan;100216.72;5013531;28;20055;-67
2023/07/29 04:47:55;;;;;;;8.83;5.07;;;;;;;17.12;nan;100214.84;5014587;28;20053;-68
2023/07/29 04:50:21;;;;;;;6.80;4.75;;;;;;;17.21;nan;100204.41;5016112;28;20057;-68
2023/07/29 04:52:46;;;;;;;7.00;5.00;;;;;;;17.30;nan;100207.31;5018337;28;20047;-69
2023/07/29 04:55:11;;;;;;;8.57;4.80;;;;;;;17.48;nan;100217.34;5015884;28;20495;-68
2023/07/29 04:57:37;;;;;;;6.53;4.43;;;;;;;17.59;nan;100223.38;5013658;28;20034;-69
2023/07/29 05:00:03;;;;;;;9.85;4.90;;;;;;;17.61;nan;100221.25;5016202;28;20034;-68
2023/07/29 05:02:28;;;;;;;8.38;5.28;;;;;;;17.68;nan;100219.06;5015502;28;20786;-73
2023/07/29 05:04:53;;;;;;;11.85;5.20;;;;;;;17.77;nan;100214.75;5015714;28;20108;-73
2023/07/29 05:07:19;;;;;;;9.13;4.80;;;;;;;17.84;nan;100217.94;5013183;28;20108;-73
2023/07/29 05:09:44;;;;;;;6.45;4.93;;;;;;;17.96;nan;100225.56;5014880;28;20583;-73
2023/07/29 05:12:10;;;;;;;8.48;4.50;;;;;;;18.01;nan;100225.53;5013373;28;20104;-74
2023/07/29 05:14:35;;;;;;;7.10;4.50;;;;;;;18.19;nan;100231.25;5013639;28;20034;-74
2023/07/29 05:17:00;;;;;;;6.15;4.45;;;;;;;18.23;nan;100219.75;5015432;28;20100;-72
2023/07/29 05:19:26;;;;;;;6.95;4.93;;;;;;;18.39;nan;100233.75;5015426;28;20029;-73
2023/07/29 05:21:51;;;;;;;9.93;4.32;;;;;;;18.47;nan;100240.34;5014975;28;20037;-74
2023/07/29 05:24:17;;;;;;;7.25;4.55;;;;;;;18.49;nan;100224.84;5017167;28;20106;-72
2023/07/29 05:26:42;;;;;;;7.68;4.60;;;;;;;18.62;nan;100234.84;5016470;28;20026;-73
2023/07/29 05:29:08;;;;;;;6.35;4.70;;;;;;;18.69;nan;100221.97;5016389;28;20040;-73
2023/07/29 05:31:33;;;;;;;16.13;4.80;;;;;;;18.84;nan;100252.25;5017364;28;20052;-72
2023/07/29 05:33:59;;;;;;;10.10;7.15;;;;;;;18.96;nan;100246.53;5018066;28;20025;-72
2023/07/29 05:36:24;;;;;;;9.13;5.40;;;;;;;19.06;nan;100243.75;5016612;28;20060;-72
2023/07/29 05:38:51;;;;;;;12.02;6.68;;;;;;;19.01;nan;100217.91;5020881;28;20030;-72
2023/07/29 05:41:16;;;;;;;9.73;4.93;;;;;;;19.10;nan;100221.53;5013793;28;20475;-72
2023/07/29 05:43:43;;;;;;;8.75;4.72;;;;;;;19.45;nan;100242.72;5019410;28;20061;-73
2023/07/29 05:46:09;;;;;;;7.97;5.68;;;;;;;19.56;nan;100246.81;5019834;28;20102;-73
2023/07/29 05:48:34;;;;;;;7.38;4.80;;;;;;;19.67;nan;100256.28;5015708;28;20041;-73
2023/07/29 05:51:00;;;;;;;12.60;4.38;;;;;;;19.63;nan;100241.13;5019454;28;20084;-71
2023/07/29 05:53:25;;;;;;;13.27;4.90;;;;;;;19.92;nan;100257.03;5017123;28;20054;-72
2023/07/29 05:55:51;;;;;;;9.27;4.90;;;;;;;20.02;nan;100246.19;5018870;28;20056;-71
2023/07/29 05:58:16;;;;;;;11.77;5.22;;;;;;;20.16;nan;100256.91;5018671;28;20036;-70
2023/07/29 06:00:42;;;;;;;8.18;5.03;;;;;;;20.21;nan;100259.53;5019848;28;20026;-72
2023/07/29 06:03:07;;;;;;;7.78;4.40;;;;;;;20.42;nan;100262.63;5017295;28;20034;-71
2023/07/29 06:05:33;;;;;;;5.57;4.13;;;;;;;20.52;nan;100262.47;5019249;28;20477;-72
2023/07/29 06:07:58;;;;;;;6.20;4.40;;;;;;;20.50;nan;100248.59;5022170;28;20025;-72
2023/07/29 06:10:24;;;;;;;8.52;4.65;;;;;;;20.62;nan;100258.84;5018799;28;20026;-72
2023/07/29 06:12:49;;;;;;;8.65;4.00;;;;;;;20.69;nan;100263.81;5019866;28;20750;-67
2023/07/29 06:15:15;;;;;;;6.28;3.72;;;;;;;20.72;nan;100265.91;5018246;28;20125;-69
2023/07/29 06:17:40;;;;;;;6.90;4.05;;;;;;;20.85;nan;100270.47;5018190;28;20503;-69
2023/07/29 06:20:06;;;;;;;10.82;4.47;;;;;;;20.93;nan;100277.81;5016049;28;20399;-68
2023/07/29 06:22:32;;;;;;;5.82;4.43;;;;;;;21.09;nan;100277.50;5016951;28;20049;-69
2023/07/29 06:24:57;;;;;;;8.38;3.83;;;;;;;21.24;nan;100282.56;5015833;28;20049;-68
2023/07/29 06:27:25;;;;;;;9.02;4.20;;;;;;;21.25;nan;100279.56;5017789;28;20026;-68
2023/07/29 06:29:50;;;;;;;5.70;3.90;;;;;;;21.27;nan;100275.81;5021624;28;20037;-71
2023/07/29 06:32:15;;;;;;;5.22;3.47;;;;;;;21.32;nan;100276.50;5015071;28;20456;-72
2023/07/29 06:34:41;;;;;;;7.65;4.53;;;;;;;21.31;nan;100272.25;5017738;28;20026;-72
2023/07/29 06:37:06;;;;;;;8.25;3.88;;;;;;;21.42;nan;100286.22;5018379;28;20061;-72
2023/07/29 06:39:32;;;;;;;8.25;3.67;;;;;;;21.40;nan;100278.50;5017988;28;20087;-72
2023/07/29 06:41:57;;;;;;;7.07;3.72;;;;;;;21.53;nan;100292.97;5019647;28;20033;-71
2023/07/29 06:44:23;;;;;;;5.47;3.80;;;;;;;21.53;nan;100287.63;5020048;28;20059;-72
2023/07/29 06:46:48;;;;;;;8.75;3.83;;;;;;;21.61;nan;100286.88;5016996;28;20018;-73
2023/07/29 06:49:14;;;;;;;7.13;3.80;;;;;;;21.55;nan;100261.31;5015363;28;20121;-72
2023/07/29 06:51:39;;;;;;;6.95;4.20;;;;;;;21.70;nan;100284.28;5016565;28;20041;-73
2023/07/29 06:54:04;;;;;;;6.88;3.78;;;;;;;21.82;nan;100294.50;5015171;28;20041;-71
2023/07/29 06:56:30;;;;;;;6.20;4.00;;;;;;;21.80;nan;100294.78;5021728;28;20377;-72
2023/07/29 06:58:55;;;;;;;8.77;3.90;;;;;;;21.83;nan;100280.78;5020009;28;20404;-72
2023/07/29 07:01:20;;;;;;;8.70;4.07;;;;;;;21.94;nan;100284.03;5017231;28;20026;-72
2023/07/29 07:03:46;;;;;;;5.38;4.28;;;;;;;21.93;nan;100279.75;5017337;28;20036;-70
2023/07/29 07:06:11;;;;;;;7.60;3.83;;;;;;;22.04;nan;100289.13;5017921;28;20056;-70
2023/07/29 07:08:37;;;;;;;8.95;4.25;;;;;;;22.03;nan;100271.47;5016066;28;20036;-70
2023/07/29 07:11:02;;;;;;;6.15;3.58;;;;;;;22.08;nan;100270.56;5017475;28;20033;-70
2023/07/29 07:13:27;;;;;;;4.20;3.53;;;;;;;22.18;nan;100283.72;5019320;28;20030;-68
2023/07/29 07:15:56;;;;;;;5.53;3.90;;;;;;;22.26;nan;100271.50;5020312;28;20022;-68
2023/07/29 07:18:22;;;;;;;5.63;3.85;;;;;;;22.30;nan;100275.94;5018233;28;20038;-68
2023/07/29 07:20:50;;;;;;;5.60;3.88;;;;;;;22.42;nan;100288.00;5017668;28;20029;-68
2023/07/29 07:23:17;;;;;;;7.80;3.78;;;;;;;22.45;nan;100277.44;5017042;28;20097;-68
2023/07/29 07:25:42;;;;;;;4.28;3.60;;;;;;;22.47;nan;100279.81;5016146;28;20397;-68
2023/07/29 07:28:08;;;;;;;6.00;3.80;;;;;;;22.56;nan;100294.09;5016040;28;20064;-68
2023/07/29 07:30:34;;;;;;;6.07;3.47;;;;;;;22.60;nan;100292.38;5018861;28;20038;-69
2023/07/29 07:32:59;;;;;;;10.85;4.05;;;;;;;22.60;nan;100281.66;5016878;28;20022;-68
2023/07/29 07:35:25;;;;;;;6.20;3.85;;;;;;;22.64;nan;100279.91;5017145;28;20057;-72
2023/07/29 07:37:50;;;;;;;6.43;3.90;;;;;;;22.71;nan;100285.63;5014652;28;20038;-73
2023/07/29 07:40:15;;;;;;;7.65;3.78;;;;;;;22.87;nan;100288.69;5018205;28;20033;-73
2023/07/29 07:42:41;;;;;;;7.50;3.83;;;;;;;22.89;nan;100283.81;5015748;28;20361;-74
2023/07/29 07:45:06;;;;;;;10.88;4.15;;;;;;;23.01;nan;100283.25;5017871;28;20017;-72
2023/07/29 07:47:32;;;;;;;7.65;4.03;;;;;;;23.13;nan;100274.59;5016180;28;20029;-73
2023/07/29 07:49:57;;;;;;;5.93;3.80;;;;;;;23.20;nan;100269.56;5015672;28;20033;-73
2023/07/29 07:52:22;;;;;;;7.32;3.67;;;;;;;23.33;nan;100273.22;5017660;28;20468;-73
2023/07/29 07:54:54;;;;;;;9.43;3.58;;;;;;;23.43;nan;100280.97;5017913;28;20480;-74
2023/07/29 07:57:21;;;;;;;9.75;3.85;;;;;;;23.48;nan;100269.28;5016634;28;20104;-73
2023/07/29 07:59:47;;;;;;;6.13;3.90;;;;;;;23.57;nan;100270.88;5017038;28;20029;-76
2023/07/29 08:02:12;;;;;;;9.98;3.80;;;;;;;23.68;nan;100274.06;5018520;28;20026;-74
2023/07/29 08:04:37;;;;;;;6.50;4.20;;;;;;;23.75;nan;100269.03;5015773;28;20034;-71
2023/07/29 08:07:03;;;;;;;5.97;3.97;;;;;;;23.87;nan;100265.69;5015275;28;20014;-72
2023/07/29 08:09:28;;;;;;;7.32;3.90;;;;;;;23.95;nan;100259.50;5015503;28;20056;-71
2023/07/29 08:11:53;;;;;;;9.00;3.83;;;;;;;24.09;nan;100274.69;5015922;28;20490;-72
2023/07/29 08:14:19;;;;;;;14.68;4.50;;;;;;;23.99;nan;100246.22;5016326;28;20062;-71
2023/07/29 08:16:44;;;;;;;7.45;4.50;;;;;;;24.30;nan;100275.63;5016082;28;20034;-75
2023/07/29 08:19:10;;;;;;;7.88;4.70;;;;;;;24.35;nan;100258.47;5015632;28;20117;-75
2023/07/29 08:21:36;;;;;;;10.02;5.50;;;;;;;24.47;nan;100257.84;5021497;28;20053;-76
2023/07/29 08:24:01;;;;;;;5.80;4.53;;;;;;;24.61;nan;100269.19;5019471;28;20064;-75
2023/07/29 08:26:26;;;;;;;9.52;4.53;;;;;;;24.66;nan;100258.25;5015998;28;20042;-75
2023/07/29 08:28:52;;;;;;;7.20;4.88;;;;;;;24.65;nan;100245.91;5017394;28;20031;-75
2023/07/29 08:31:17;;;;;;;10.43;4.70;;;;;;;24.79;nan;100240.31;5011772;28;20044;-76
2023/07/29 08:33:42;;;;;;;10.45;4.30;;;;;;;24.94;nan;100257.81;5014315;28;20025;-76
2023/07/29 08:36:08;;;;;;;7.03;4.18;;;;;;;25.01;nan;100247.31;5015957;28;20420;-75
2023/07/29 08:38:33;;;;;;;6.90;3.58;;;;;;;25.14;nan;100246.31;5016744;28;20139;-75
2023/07/29 08:41:13;;;;;;;9.60;3.67;;;;;;;25.28;nan;100254.16;5013376;28;20034;-75
2023/07/29 08:44:08;;;;;;;10.38;3.78;;;;;;;25.35;nan;100234.78;5045260;28;20030;-75
2023/07/29 08:46:34;;;;;;;6.70;3.35;;;;;;;25.46;nan;100238.66;5007407;28;20131;-73
2023/07/29 08:49:01;;;;;;;11.07;3.78;;;;;;;25.51;nan;100227.66;5017078;28;20584;-72
2023/07/29 08:51:27;;;;;;;9.30;3.78;;;;;;;25.63;nan;100235.03;5024743;28;20144;-72
2023/07/29 08:53:53;;;;;;;5.75;3.05;;;;;;;25.64;nan;100236.59;5019392;28;20038;-73
2023/07/29 08:56:19;;;;;;;7.35;3.58;;;;;;;25.74;nan;100236.22;5016965;28;20563;-72
2023/07/29 08:58:45;;;;;;;7.28;3.35;;;;;;;25.83;nan;100238.81;5014277;28;20143;-72
2023/07/29 09:01:11;;;;;;;9.93;3.40;;;;;;;25.84;nan;100241.19;5013465;28;20048;-73
2023/07/29 09:03:37;;;;;;;7.35;3.20;;;;;;;25.84;nan;100229.63;5012459;28;20102;-72
2023/07/29 09:06:03;;;;;;;6.25;3.47;;;;;;;25.97;nan;100247.44;5018839;28;20014;-72
2023/07/29 09:08:29;;;;;;;5.13;3.17;;;;;;;26.01;nan;100242.19;5016887;28;20118;-73
2023/07/29 09:10:55;;;;;;;8.48;3.55;;;;;;;25.99;nan;100242.50;5014356;28;20104;-72
2023/07/29 09:13:21;;;;;;;7.95;3.20;;;;;;;25.98;nan;100229.34;5013362;28;20030;-71
2023/07/29 09:15:47;;;;;;;7.78;3.33;;;;;;;26.18;nan;100238.50;5016123;28;20104;-73
2023/07/29 09:18:19;;;;;;;6.78;2.80;;;;;;;26.23;nan;100238.28;5022496;28;20679;-73
2023/07/29 09:20:47;;;;;;;4.47;2.58;;;;;;;26.31;nan;100243.63;5021318;28;20063;-72
2023/07/29 09:23:13;;;;;;;3.75;2.78;;;;;;;26.28;nan;100233.47;5023281;28;20037;-72
2023/07/29 09:25:39;;;;;;;9.70;2.55;;;;;;;26.31;nan;100230.13;5019255;28;20029;-72
2023/07/29 09:28:13;;;;;;;5.35;2.50;;;;;;;26.43;nan;100242.03;5018798;28;20044;-72
2023/07/29 09:30:40;;;;;;;6.68;2.78;;;;;;;26.44;nan;100238.22;5018296;28;20029;-71
2023/07/29 09:33:06;;;;;;;3.30;2.60;;;;;;;26.31;nan;100205.00;5018148;28;20029;-71
2023/07/29 09:35:34;;;;;;;12.13;2.83;;;;;;;26.55;nan;100236.66;5022891;28;20060;-71
2023/07/29 09:38:00;;;;;;;4.78;2.47;;;;;;;26.53;nan;100228.13;5023817;28;20029;-72
2023/07/29 09:40:25;;;;;;;6.63;2.63;;;;;;;26.54;nan;100234.31;5022337;28;20025;-72
2023/07/29 09:42:54;;;;;;;8.48;2.70;;;;;;;26.63;nan;100241.19;5019845;28;20040;-72
2023/07/29 09:45:26;;;;;;;4.32;2.50;;;;;;;26.66;nan;100243.22;5016571;28;20521;-72
2023/07/29 09:47:57;;;;;;;5.78;2.42;;;;;;;26.71;nan;100242.22;5020917;28;20037;-72
2023/07/29 09:50:26;;;;;;;8.23;2.55;;;;;;;26.76;nan;100239.28;5019910;28;20018;-71
2023/07/29 09:52:51;;;;;;;;;;;;;;;26.82;nan;100235.22;5018091;28;20079;-69
2023/07/29 09:55:19;;;;;;;7.03;2.60;;;;;;;26.87;nan;100226.91;5018801;28;19917;-69
2023/07/29 09:57:45;;;;;;;5.63;2.40;;;;;;;26.91;nan;100227.81;5018741;28;20094;-68
2023/07/29 10:00:11;;;;;;;4.28;2.65;;;;;;;27.02;nan;100230.81;5017494;28;20109;-68
2023/07/29 10:02:39;;;;;;;8.95;2.95;;;;;;;27.10;nan;100226.41;5017039;28;20041;-69
2023/07/29 10:05:06;;;;;;;6.20;2.58;;;;;;;27.15;nan;100226.16;5020944;28;20029;-70
2023/07/29 10:07:32;;;;;;;3.65;2.53;;;;;;;27.19;nan;100216.28;5016610;28;20109;-70
2023/07/29 10:09:59;;;;;;;12.57;2.95;;;;;;;27.28;nan;100219.66;5014321;28;20055;-71
2023/07/29 10:12:25;;;;;;;10.55;2.75;;;;;;;27.22;nan;100202.09;5015511;28;20021;-70
2023/07/29 10:14:50;;;;;;;9.15;3.17;;;;;;;27.32;nan;100208.91;5018848;28;20026;-69
2023/07/29 10:17:16;;;;;;;5.70;2.60;;;;;;;27.44;nan;100217.03;5019844;28;20025;-69
2023/07/29 10:19:43;;;;;;;5.65;2.40;;;;;;;27.50;nan;100214.84;5018999;28;20022;-68
2023/07/29 10:22:10;;;;;;;6.13;3.20;;;;;;;27.64;nan;100217.19;5017954;28;20116;-69
2023/07/29 10:24:41;;;;;;;4.07;2.50;;;;;;;27.71;nan;100210.03;5018894;28;20123;-71
2023/07/29 10:27:07;;;;;;;9.18;3.13;;;;;;;27.79;nan;100217.19;5024031;28;20846;-71
2023/07/29 10:29:38;;;;;;;8.00;2.72;;;;;;;27.94;nan;100218.41;5017997;28;20022;-72
2023/07/29 10:32:05;;;;;;;5.38;2.50;;;;;;;27.97;nan;100203.41;5014661;28;20049;-73
2023/07/29 10:34:32;;;;;;;3.88;2.35;;;;;;;28.10;nan;100209.53;5015658;28;20029;-72
2023/07/29 10:36:59;;;;;;;5.40;2.25;;;;;;;28.23;nan;100218.34;5016307;28;20574;-69
2023/07/29 10:39:25;;;;;;;6.30;2.47;;;;;;;28.31;nan;100211.97;5014985;28;20152;-69
2023/07/29 10:41:59;;;;;;;7.50;2.30;;;;;;;28.31;nan;100196.50;5014509;28;20036;-73
2023/07/29 10:44:41;;;;;;;4.65;2.50;;;;;;;28.47;nan;100199.25;5014398;28;20113;-71
2023/07/29 10:47:34;;;;;;;4.72;2.30;;;;;;;28.38;nan;100182.38;5015174;28;20113;-68
2023/07/29 10:49:59;;;;;;;4.45;2.60;;;;;;;28.58;nan;100189.44;5017490;28;20042;-71
2023/07/29 10:52:34;;;;;;;5.93;2.30;;;;;;;28.70;nan;100195.91;5015259;28;20049;-70
2023/07/29 10:55:01;;;;;;;4.35;2.33;;;;;;;28.69;nan;100189.69;5014790;28;20038;-69
2023/07/29 10:57:34;;;;;;;3.53;2.60;;;;;;;28.76;nan;100191.78;5019586;28;20116;-70
2023/07/29 11:00:01;;;;;;;5.32;2.22;;;;;;;28.81;nan;100177.97;5017329;28;20033;-69
2023/07/29 11:02:31;;;;;;;2.97;2.40;;;;;;;28.93;nan;100180.53;5017000;28;20030;-69
2023/07/29 11:04:57;;;;;;;5.40;2.22;;;;;;;29.08;nan;100186.31;5018183;28;20026;-69
2023/07/29 11:07:27;;;;;;;3.75;2.08;;;;;;;29.10;nan;100178.59;5017001;28;20110;-68
2023/07/29 11:10:01;;;;;;;4.68;2.50;;;;;;;29.21;nan;100182.31;5018409;28;20030;-70
2023/07/29 11:12:35;;;;;;;6.07;2.25;;;;;;;29.30;nan;100188.31;5015505;28;20026;-68
2023/07/29 11:15:28;;;;;;;4.82;2.30;;;;;;;29.38;nan;100192.75;5023978;28;20124;-68
2023/07/29 11:18:01;;;;;;;3.72;2.35;;;;;;;29.45;nan;100187.47;5018538;28;20025;-68
2023/07/29 11:20:32;;;;;;;4.95;2.60;;;;;;;29.52;nan;100186.00;5017853;28;20407;-69
2023/07/29 11:23:02;;;;;;;3.05;2.10;;;;;;;29.54;nan;100179.09;5018266;28;20053;-69
2023/07/29 11:25:29;;;;;;;4.65;2.33;;;;;;;29.62;nan;100174.59;5024616;28;20026;-69
2023/07/29 11:27:58;;;;;;;4.13;2.20;;;;;;;29.68;nan;100175.88;5016654;28;20037;-69
2023/07/29 11:30:27;;;;;;;7.57;2.83;;;;;;;29.74;nan;100174.47;5015354;28;20034;-68
2023/07/29 11:32:53;;;;;;;3.45;1.90;;;;;;;29.78;nan;100172.56;5015789;28;20048;-68
2023/07/29 11:35:18;;;;;;;5.72;2.38;;;;;;;29.85;nan;100163.78;5019217;28;20033;-68
2023/07/29 11:37:46;;;;;;;6.70;2.22;;;;;;;29.84;nan;100151.38;5019399;28;20121;-68
2023/07/29 11:40:20;;;;;;;5.88;2.15;;;;;;;29.99;nan;100158.59;5016712;28;20021;-69